Time;durP1;ratioP1;P1;durP2;ratioP2;P2;SDS_P1;SDS_P2;PMS_P1;PMS_P2;Temp;Humidity;BMP_temperature;BMP_pressure;BME280_temperature;BME280_humidity;BME280_pressure;Samples;Min_cycle;Max_cycle;Signal;HPM_P1;HPM_P2
2022/01/19 00:00:13;;;;;;;30.55;16.75;;;;;;;1.84;97.58;103301.56;4790767;30;20114;-79
2022/01/19 00:02:39;;;;;;;35.90;16.70;;;;;;;1.64;97.42;103272.44;4790545;30;20035;-79
2022/01/19 00:05:07;;;;;;;30.08;16.50;;;;;;;1.44;97.39;103262.81;4790337;30;20038;-79
2022/01/19 00:07:32;;;;;;;29.27;15.75;;;;;;;1.49;97.18;103285.81;4790499;30;20043;-79
2022/01/19 00:15:02;;;;;;;30.55;16.08;;;;;;;1.15;97.26;103272.59;4790682;30;20476;-79
2022/01/19 00:17:28;;;;;;;31.77;16.45;;;;;;;0.86;97.39;103258.53;4790469;30;20043;-78
2022/01/19 00:19:53;;;;;;;34.38;17.75;;;;;;;0.92;97.48;103285.78;4790854;30;20052;-79
2022/01/19 00:22:19;;;;;;;32.85;16.00;;;;;;;0.78;97.70;103283.00;4790591;30;20114;-79
2022/01/19 00:24:44;;;;;;;27.23;16.17;;;;;;;0.73;97.76;103284.63;4790238;30;20108;-79
2022/01/19 00:27:11;;;;;;;34.70;16.80;;;;;;;0.66;97.79;103276.00;4790199;29;20031;-79
2022/01/19 00:29:37;;;;;;;28.48;15.65;;;;;;;0.52;97.52;103252.91;4790282;30;20027;-79
2022/01/19 00:32:02;;;;;;;28.58;15.65;;;;;;;0.49;98.05;103236.72;4790091;30;20088;-79
2022/01/19 00:34:28;;;;;;;29.35;16.27;;;;;;;0.44;97.97;103220.53;4790205;30;20783;-79
2022/01/19 00:36:54;;;;;;;31.17;15.65;;;;;;;0.20;97.63;103178.63;4790179;30;20074;-80
2022/01/19 00:39:19;;;;;;;30.10;15.90;;;;;;;0.30;97.68;103191.50;4790107;30;20039;-79
2022/01/19 00:41:44;;;;;;;27.33;15.02;;;;;;;0.21;97.53;103180.34;4790015;30;20117;-79
2022/01/19 00:44:10;;;;;;;29.75;17.10;;;;;;;0.07;98.07;103176.69;4789890;30;20122;-79
2022/01/19 00:46:35;;;;;;;29.83;17.55;;;;;;;0.00;98.64;103169.81;4789968;30;20046;-80
2022/01/19 00:49:00;;;;;;;33.75;18.02;;;;;;;0.15;98.38;103210.72;4788705;29;20042;-79
2022/01/19 00:51:26;;;;;;;32.13;19.92;;;;;;;0.11;98.24;103216.59;4789878;30;20027;-79
2022/01/19 00:53:51;;;;;;;33.95;20.75;;;;;;;-0.05;98.25;103194.25;4789918;30;20035;-79
2022/01/19 00:56:16;;;;;;;31.73;19.70;;;;;;;0.09;98.66;103224.97;4789653;30;20036;-79
2022/01/19 00:58:42;;;;;;;34.67;18.58;;;;;;;-0.07;98.35;103209.47;4789677;30;20054;-79
2022/01/19 01:01:10;;;;;;;35.25;19.98;;;;;;;-0.17;98.27;103205.03;4789801;30;20035;-79
2022/01/19 01:03:35;;;;;;;36.80;18.48;;;;;;;0.04;98.46;103235.06;4789551;30;20115;-79
2022/01/19 01:06:00;;;;;;;40.63;19.13;;;;;;;0.08;98.82;103220.72;4789987;30;20122;-79
2022/01/19 01:08:26;;;;;;;99.18;19.67;;;;;;;0.08;99.63;103208.03;4789797;30;20041;-78
2022/01/19 01:10:51;;;;;;;74.72;19.33;;;;;;;0.13;99.92;103197.13;4789614;30;20090;-79
2022/01/19 01:16:05;;;;;;;40.88;17.50;;;;;;;0.06;99.41;103156.34;4751590;30;20029;-79
2022/01/19 01:18:33;;;;;;;31.38;17.70;;;;;;;0.22;99.52;103176.13;4751512;30;20052;-79
2022/01/19 01:21:00;;;;;;;43.00;18.25;;;;;;;0.08;99.60;103130.13;4737495;30;20543;-79
2022/01/19 01:23:28;;;;;;;41.30;18.13;;;;;;;0.21;99.24;103147.31;4752041;30;20029;-80
2022/01/19 01:25:54;;;;;;;40.05;19.70;;;;;;;0.15;98.98;103141.25;4751649;30;20127;-79
2022/01/19 01:28:19;;;;;;;40.85;19.23;;;;;;;0.04;98.64;103128.38;4751586;30;20584;-79
2022/01/19 01:30:46;;;;;;;40.15;19.13;;;;;;;0.08;99.07;103131.81;4751529;30;20059;-79
2022/01/19 01:33:11;;;;;;;41.25;19.33;;;;;;;0.04;99.44;103125.84;4751524;30;20138;-79
2022/01/19 01:35:37;;;;;;;35.92;19.40;;;;;;;-0.21;99.21;103075.44;4751661;30;20120;-79
2022/01/19 01:38:04;;;;;;;36.33;18.83;;;;;;;-0.04;99.30;103091.81;4736135;30;20036;-79
2022/01/19 01:40:33;;;;;;;39.30;19.25;;;;;;;-0.26;99.45;103047.44;4736870;30;20044;-79
2022/01/19 01:42:59;;;;;;;40.63;20.65;;;;;;;-0.21;99.79;103044.97;4736745;30;20040;-79
2022/01/19 01:45:29;;;;;;;36.95;20.35;;;;;;;-0.08;99.65;103069.75;4751480;30;20040;-80
2022/01/19 01:48:05;;;;;;;36.63;19.88;;;;;;;-0.07;100.00;103063.84;4751379;30;20047;-79
2022/01/19 01:53:26;;;;;;;39.70;19.85;;;;;;;-0.21;100.00;103065.28;4772387;30;20049;-79
2022/01/19 01:56:12;;;;;;;40.85;21.27;;;;;;;-0.07;100.00;103101.94;4788937;30;20458;-79
2022/01/19 01:58:40;;;;;;;38.35;21.42;;;;;;;-0.12;100.00;103094.22;4788447;29;20046;-79
2022/01/19 02:01:08;;;;;;;42.60;20.63;;;;;;;-0.23;99.92;103077.09;4788951;30;20079;-79
2022/01/19 02:03:39;;;;;;;41.33;20.83;;;;;;;-0.35;100.00;103059.97;4788692;30;20114;-79
2022/01/19 03:36:13;;;;;;;49.97;26.40;;;;;;;-0.81;100.00;102893.34;4804040;29;20135;-78
2022/01/19 03:39:11;;;;;;;49.65;25.85;;;;;;;-0.83;100.00;102884.88;4804506;29;20523;-79
2022/01/19 03:41:37;;;;;;;44.38;23.27;;;;;;;-0.89;100.00;102871.25;4805349;29;20066;-78
2022/01/19 03:44:02;;;;;;;48.58;24.95;;;;;;;-0.94;100.00;102880.47;4805248;29;20070;-78
2022/01/19 03:46:33;;;;;;;49.67;24.35;;;;;;;-1.07;100.00;102849.81;4805285;29;20046;-78
2022/01/19 03:49:09;;;;;;;52.22;25.55;;;;;;;-1.07;100.00;102844.75;4805280;29;20026;-79
2022/01/19 03:51:34;;;;;;;49.15;25.00;;;;;;;-1.03;100.00;102852.41;4805194;29;20031;-79
2022/01/19 03:56:44;;;;;;;49.38;25.98;;;;;;;-1.49;100.00;102762.88;4102478;27;20055;-79
2022/01/19 03:59:15;;;;;;;49.83;26.27;;;;;;;-1.83;100.00;102708.25;4769303;30;20439;-79
2022/01/19 04:01:44;;;;;;;54.55;26.42;;;;;;;-1.01;100.00;102835.53;4769455;30;20024;-79
2022/01/19 04:05:08;;;;;;;54.33;26.10;;;;;;;-1.85;100.00;102688.81;4769267;30;20481;-79
2022/01/19 04:07:14;;;;;;;48.22;25.15;;;;;;;-1.18;100.00;102798.91;4762015;30;20127;-79
2022/01/19 04:09:42;;;;;;;51.63;27.08;;;;;;;-1.08;100.00;102816.00;4775766;24;20055;-79
2022/01/19 04:12:12;;;;;;;50.25;26.10;;;;;;;-1.10;100.00;102821.84;4769153;30;20039;-79
2022/01/19 04:14:38;;;;;;;48.03;26.45;;;;;;;-1.09;100.00;102814.28;4769225;30;20062;-79
2022/01/19 04:17:06;;;;;;;54.45;26.20;;;;;;;-1.18;100.00;102809.03;4768904;30;20035;-79
2022/01/19 04:19:47;;;;;;;52.80;27.02;;;;;;;-1.08;100.00;102831.22;4769209;30;20060;-80
2022/01/19 04:22:18;;;;;;;55.00;29.10;;;;;;;-1.12;100.00;102823.50;4770076;30;20036;-80
2022/01/19 04:24:46;;;;;;;52.20;28.02;;;;;;;-1.20;100.00;102811.56;4772717;30;20104;-79
2022/01/19 04:29:48;;;;;;;56.20;29.20;;;;;;;-1.09;100.00;102828.63;4772930;30;20067;-80
2022/01/19 04:32:19;;;;;;;56.97;27.98;;;;;;;-1.11;100.00;102825.22;4772292;30;20499;-80
2022/01/19 04:34:47;;;;;;;61.53;30.77;;;;;;;-1.20;100.00;102806.47;4772424;30;20032;-80
2022/01/19 05:01:47;;;;;;;71.18;33.25;;;;;;;-1.19;100.00;102762.56;4771936;30;20612;-79
2022/01/19 05:06:42;;;;;;;81.82;37.65;;;;;;;-0.85;100.00;102796.09;4795011;24;20067;-79
2022/01/19 05:14:35;;;;;;;100.15;42.10;;;;;;;-0.59;100.00;102783.78;4789806;30;20042;-80
2022/01/19 05:17:00;;;;;;;118.30;44.42;;;;;;;-0.46;100.00;102790.75;4788190;30;20459;-79
2022/01/19 05:19:29;;;;;;;124.43;44.38;;;;;;;-0.24;100.00;102809.66;4789506;30;20511;-79
2022/01/19 05:21:54;;;;;;;124.68;47.00;;;;;;;-0.20;100.00;102797.84;4789319;30;20031;-80
2022/01/19 05:24:19;;;;;;;109.75;44.58;;;;;;;-0.14;100.00;102808.94;4789766;30;20550;-80
2022/01/19 05:26:46;;;;;;;105.68;41.95;;;;;;;-0.12;100.00;102804.72;4789303;30;20503;-80
2022/01/19 05:29:11;;;;;;;102.07;42.25;;;;;;;-0.08;100.00;102808.19;4789230;30;20023;-80
2022/01/19 05:31:37;;;;;;;99.25;40.03;;;;;;;-0.06;100.00;102799.75;4789122;29;20456;-80
2022/01/19 05:34:03;;;;;;;93.03;40.13;;;;;;;-0.02;100.00;102801.47;4789000;29;20038;-80
2022/01/19 05:36:28;;;;;;;92.18;38.53;;;;;;;0.01;100.00;102792.22;4789122;30;20040;-79
2022/01/19 05:38:53;;;;;;;89.00;37.90;;;;;;;0.09;100.00;102790.59;4789319;29;20043;-79
2022/01/19 05:41:20;;;;;;;80.25;37.05;;;;;;;0.12;100.00;102786.41;4789156;30;20078;-79
2022/01/19 05:43:45;;;;;;;76.38;36.22;;;;;;;0.16;100.00;102790.69;4773600;30;20035;-79
2022/01/19 05:46:11;;;;;;;79.68;35.65;;;;;;;0.07;100.00;102754.16;4789210;30;20043;-79
2022/01/19 05:48:36;;;;;;;81.03;34.88;;;;;;;0.21;100.00;102785.69;4788888;30;20031;-79
2022/01/19 05:51:02;;;;;;;68.68;33.53;;;;;;;0.21;100.00;102766.22;4788980;30;20031;-79
2022/01/19 05:53:30;;;;;;;78.65;34.25;;;;;;;-0.01;100.00;102731.22;4788837;30;20058;-80
2022/01/19 05:55:56;;;;;;;68.40;32.03;;;;;;;0.34;100.00;102787.50;4797263;24;20059;-79
2022/01/19 05:58:21;;;;;;;64.13;31.73;;;;;;;0.38;100.00;102783.31;4770828;30;20039;-79
2022/01/19 06:00:46;;;;;;;64.72;31.10;;;;;;;0.39;100.00;102792.63;4770924;30;20055;-79
2022/01/19 06:03:12;;;;;;;59.53;30.55;;;;;;;0.35;100.00;102773.97;4770768;30;20032;-79
2022/01/19 06:05:37;;;;;;;59.63;31.52;;;;;;;0.43;100.00;102782.53;4770884;30;20115;-79
2022/01/19 06:10:47;;;;;;;55.72;30.38;;;;;;;0.47;100.00;102771.53;4770616;30;20554;-79
2022/01/19 06:13:17;;;;;;;61.17;30.30;;;;;;;0.49;100.00;102772.44;4788692;30;20038;-79
2022/01/19 06:15:46;;;;;;;52.45;29.52;;;;;;;0.44;100.00;102763.91;4788643;30;20400;-79
2022/01/19 06:18:12;;;;;;;50.20;28.25;;;;;;;0.42;100.00;102754.56;4788230;30;20575;-79
2022/01/19 06:20:38;;;;;;;50.63;28.63;;;;;;;0.52;100.00;102774.16;4788314;30;20074;-79
2022/01/19 06:23:04;;;;;;;50.58;28.67;;;;;;;0.48;100.00;102758.00;4788468;30;20070;-79
2022/01/19 06:25:29;;;;;;;56.70;29.88;;;;;;;0.49;100.00;102747.00;4788297;30;20089;-79
2022/01/19 06:27:54;;;;;;;53.35;29.20;;;;;;;0.47;100.00;102735.97;4788516;30;20416;-79
2022/01/19 06:30:20;;;;;;;53.22;30.60;;;;;;;0.51;100.00;102740.25;4788077;30;20122;-79
2022/01/19 06:32:46;;;;;;;53.75;30.50;;;;;;;0.38;100.00;102707.06;4787087;30;20061;-79
2022/01/19 06:35:11;;;;;;;55.13;29.20;;;;;;;0.57;100.00;102732.66;4771964;30;20561;-79
2022/01/19 06:37:37;;;;;;;50.63;28.08;;;;;;;0.39;100.00;102696.91;4788066;30;20042;-79
2022/01/19 06:40:07;;;;;;;50.60;29.30;;;;;;;0.60;100.00;102726.78;4788287;30;20070;-79
2022/01/19 06:42:33;;;;;;;47.20;28.10;;;;;;;0.59;100.00;102720.00;4788198;30;20035;-79
2022/01/19 06:44:58;;;;;;;52.67;28.95;;;;;;;0.45;100.00;102693.59;4787839;30;20092;-79
2022/01/19 06:47:23;;;;;;;49.83;28.23;;;;;;;0.43;100.00;102680.00;4787489;30;20406;-78
2022/01/19 06:49:49;;;;;;;50.53;29.23;;;;;;;0.64;100.00;102715.78;4787834;30;20027;-80
2022/01/19 06:52:17;;;;;;;47.67;28.10;;;;;;;0.67;100.00;102709.84;4787721;30;20034;-80
2022/01/19 06:54:42;;;;;;;50.53;27.98;;;;;;;0.51;100.00;102680.94;4787912;30;20540;-80
2022/01/19 06:57:08;;;;;;;47.47;27.45;;;;;;;0.69;100.00;102709.06;4801045;29;20047;-80
2022/01/19 06:59:33;;;;;;;51.25;29.95;;;;;;;0.68;100.00;102692.06;4805852;29;20035;-79
2022/01/19 07:01:59;;;;;;;50.17;28.38;;;;;;;0.74;100.00;102701.44;4805825;29;20027;-80
2022/01/19 07:04:24;;;;;;;49.83;27.75;;;;;;;0.67;100.00;102680.19;4805781;29;20066;-80
2022/01/19 07:06:49;;;;;;;48.53;27.67;;;;;;;0.76;100.00;102690.44;4805448;29;20393;-81
2022/01/19 07:09:15;;;;;;;52.33;28.17;;;;;;;0.69;100.00;102685.28;4805707;29;20027;-80
2022/01/19 07:11:40;;;;;;;47.47;27.00;;;;;;;0.81;100.00;102703.22;4805739;29;20380;-80
2022/01/19 07:14:08;;;;;;;50.58;28.77;;;;;;;0.71;100.00;102681.94;4805649;29;20031;-80
2022/01/19 07:16:34;;;;;;;48.42;28.48;;;;;;;0.80;100.00;102683.72;4805715;29;20030;-78
2022/01/19 07:18:59;;;;;;;51.38;28.38;;;;;;;0.40;100.00;102616.47;4789348;29;20038;-80
2022/01/19 07:21:25;;;;;;;51.40;28.10;;;;;;;0.86;100.00;102691.34;4805609;29;20055;-80
2022/01/19 07:24:14;;;;;;;47.42;27.45;;;;;;;0.89;100.00;102691.41;4805592;29;20030;-80
2022/01/19 07:27:10;;;;;;;52.55;29.13;;;;;;;0.91;100.00;102691.41;4802871;29;20043;-80
2022/01/19 07:29:57;;;;;;;48.85;27.25;;;;;;;0.91;100.00;102684.63;4803507;29;20039;-80
2022/01/19 07:32:42;;;;;;;51.13;29.48;;;;;;;0.45;100.00;102607.16;4803539;29;20510;-80
2022/01/19 07:35:42;;;;;;;47.80;26.70;;;;;;;0.95;100.00;102677.84;4803158;29;20400;-80
2022/01/19 07:41:47;;;;;;;49.03;28.05;;;;;;;0.61;100.00;102615.75;4751335;29;20048;-79
2022/01/19 07:44:32;;;;;;;45.88;27.23;;;;;;;0.99;100.00;102675.38;4749694;30;20071;-80
2022/01/19 07:53:38;;;;;;;44.85;25.88;;;;;;;1.05;100.00;102684.72;4749888;30;20092;-79
2022/01/19 07:56:12;;;;;;;45.97;27.38;;;;;;;0.79;100.00;102621.81;4748999;30;20529;-77
2022/01/19 08:03:01;;;;;;;51.13;27.25;;;;;;;1.14;100.00;102675.44;4718380;30;20526;-78
2022/01/19 08:08:48;;;;;;;50.22;28.30;;;;;;;0.77;100.00;102594.66;4717770;30;20052;-79
2022/01/19 08:14:46;;;;;;;50.28;26.42;;;;;;;1.24;100.00;102655.13;4728464;30;20141;-85
2022/01/19 08:17:52;;;;;;;47.42;27.27;;;;;;;1.23;100.00;102643.25;4744374;30;20039;-83
2022/01/19 08:45:22;;;;;;;50.72;29.75;;;;;;;1.43;100.00;102639.09;5094493;24;20055;-82
2022/01/19 08:47:48;;;;;;;48.53;27.15;;;;;;;1.40;100.00;102634.84;4790665;29;20039;-81
2022/01/19 08:54:31;;;;;;;46.20;26.08;;;;;;;1.52;100.00;102617.91;4790241;30;20527;-81
2022/01/19 08:56:57;;;;;;;43.53;25.07;;;;;;;0.83;100.00;102493.84;4789885;30;20050;-81
2022/01/19 08:59:23;;;;;;;43.42;26.27;;;;;;;1.47;100.00;102581.41;4789527;30;20114;-81
2022/01/19 09:01:48;;;;;;;46.15;27.10;;;;;;;1.46;100.00;102584.78;4790169;30;20114;-81
2022/01/19 09:04:13;;;;;;;42.95;25.85;;;;;;;1.59;100.00;102609.47;4790321;30;20035;-80
2022/01/19 09:09:14;;;;;;;45.17;26.20;;;;;;;1.46;100.00;102575.47;4770632;27;20062;-82
2022/01/19 09:11:40;;;;;;;43.80;25.67;;;;;;;1.46;100.00;102569.50;4789794;30;20500;-84
2022/01/19 09:14:07;;;;;;;45.10;27.00;;;;;;;1.67;100.00;102588.25;4789721;30;20063;-80
2022/01/19 09:16:34;;;;;;;45.83;26.00;;;;;;;1.53;100.00;102561.06;4789609;30;20036;-81
2022/01/19 09:18:59;;;;;;;44.22;25.67;;;;;;;1.38;100.00;102536.44;4789704;30;20032;-82
2022/01/19 09:21:27;;;;;;;42.83;25.25;;;;;;;1.63;100.00;102573.81;4790012;29;20034;-80
2022/01/19 09:23:56;;;;;;;42.40;25.25;;;;;;;1.64;100.00;102577.19;4784502;30;20031;-82
2022/01/19 09:26:21;;;;;;;43.38;25.55;;;;;;;1.75;100.00;102585.72;4789683;30;20039;-86
2022/01/19 09:28:46;;;;;;;41.03;24.35;;;;;;;1.79;99.96;102581.50;4789284;30;20035;-83
2022/01/19 09:31:17;;;;;;;41.80;25.23;;;;;;;1.81;99.90;102584.88;4789633;30;20027;-82
2022/01/19 09:33:44;;;;;;;43.55;24.55;;;;;;;1.76;100.00;102563.63;4789266;30;20123;-80
2022/01/19 09:38:53;;;;;;;41.95;24.42;;;;;;;1.78;99.85;102554.31;4789470;30;20396;-80
2022/01/19 09:41:20;;;;;;;41.88;25.25;;;;;;;1.86;100.00;102562.78;4788090;30;20032;-85
2022/01/19 09:43:48;;;;;;;39.72;24.77;;;;;;;1.76;100.00;102535.63;4789169;30;20442;-82
2022/01/19 09:46:14;;;;;;;41.53;25.52;;;;;;;1.87;99.72;102546.66;4789219;30;20039;-82
2022/01/19 09:48:40;;;;;;;40.28;25.02;;;;;;;1.64;100.00;102501.66;4789064;30;20499;-82
2022/01/19 09:51:05;;;;;;;43.20;24.40;;;;;;;1.75;99.98;102516.94;4781833;30;20055;-84
2022/01/19 09:53:31;;;;;;;40.17;24.23;;;;;;;2.00;99.86;102540.75;4788793;30;20122;-81
2022/01/19 09:55:56;;;;;;;41.28;25.23;;;;;;;1.86;100.00;102502.50;4788911;30;20040;-82
2022/01/19 09:58:24;;;;;;;40.47;24.23;;;;;;;1.99;99.43;102514.41;4788803;30;20047;-82
2022/01/19 10:00:50;;;;;;;41.50;24.67;;;;;;;2.00;99.37;102510.16;4788834;30;20042;-83
2022/01/19 10:03:24;;;;;;;39.05;24.73;;;;;;;2.14;99.20;102522.88;4788962;30;20118;-83
2022/01/19 10:06:22;;;;;;;40.85;23.42;;;;;;;2.21;99.02;102525.44;4788944;30;20063;-83
2022/01/19 10:08:51;;;;;;;40.25;24.23;;;;;;;2.01;99.35;102476.19;4768303;30;20055;-83
2022/01/19 10:17:06;;;;;;;43.47;24.95;;;;;;;2.26;98.92;102530.50;4769036;30;20100;-78
2022/01/19 10:19:49;;;;;;;40.70;23.52;;;;;;;1.87;98.87;102448.19;4768372;30;20129;-80
2022/01/19 10:22:48;;;;;;;41.15;24.38;;;;;;;2.34;98.63;102512.66;4768330;30;20095;-81
2022/01/19 10:35:46;;;;;;;39.05;24.70;;;;;;;2.63;97.87;102487.94;4768693;30;20116;-84
2022/01/19 10:38:17;;;;;;;38.20;23.60;;;;;;;1.99;97.66;102381.94;4761264;30;20497;-79
2022/01/19 10:44:49;;;;;;;38.83;23.95;;;;;;;1.94;97.50;102367.50;4768685;30;20100;-79
2022/01/19 11:18:13;;;;;;;35.38;23.65;;;;;;;2.12;97.47;102300.34;2512606;24;20409;-77
2022/01/19 11:20:44;;;;;;;38.38;23.15;;;;;;;2.83;97.47;102419.81;4789576;29;20048;-78
2022/01/19 11:23:36;;;;;;;38.67;22.65;;;;;;;2.98;97.28;102430.81;4787539;30;20039;-77
2022/01/19 11:26:09;;;;;;;37.55;22.85;;;;;;;2.79;98.01;102394.34;4787725;30;20444;-80
2022/01/19 11:28:44;;;;;;;39.92;23.60;;;;;;;2.99;97.57;102425.69;4787703;30;20476;-79
2022/01/19 11:31:15;;;;;;;37.20;22.55;;;;;;;3.02;97.89;102410.38;4787557;30;20096;-79
2022/01/19 11:33:55;;;;;;;39.70;23.65;;;;;;;2.96;97.73;102400.22;4787131;30;20034;-79
2022/01/19 12:45:07;;;;;;;50.35;30.30;;;;;;;3.74;93.96;102267.59;4787371;29;20569;-80
2022/01/19 13:22:12;;;;;;;52.78;31.45;;;;;;;4.01;92.40;102215.28;4788126;30;20055;-78
2022/01/19 13:24:37;;;;;;;52.20;31.00;;;;;;;4.00;92.25;102217.84;4790999;29;20078;-78
2022/01/19 13:27:10;;;;;;;50.35;30.17;;;;;;;3.98;92.72;102211.94;4807159;29;20061;-79
2022/01/19 13:29:42;;;;;;;50.17;31.27;;;;;;;3.96;92.35;102204.28;4807432;29;20030;-80
2022/01/19 13:39:56;;;;;;;48.85;30.35;;;;;;;3.78;92.50;102173.84;4810971;24;20066;-81
2022/01/19 13:42:42;;;;;;;47.00;29.55;;;;;;;3.87;93.20;102172.91;4789200;29;20132;-78
2022/01/19 13:45:18;;;;;;;45.28;29.10;;;;;;;3.83;93.03;102169.50;4789252;30;20126;-79
2022/01/19 13:48:03;;;;;;;50.70;31.40;;;;;;;3.73;93.47;102155.19;4789338;30;20114;-78
2022/01/19 13:50:28;;;;;;;50.40;30.33;;;;;;;3.77;93.66;102156.00;4788946;30;20028;-81
2022/01/19 13:52:54;;;;;;;49.35;30.42;;;;;;;3.48;93.58;102106.13;4788983;30;20357;-80
2022/01/19 13:55:24;;;;;;;51.97;31.52;;;;;;;3.74;93.58;102147.50;4788450;29;20103;-82
2022/01/19 13:57:49;;;;;;;51.45;32.30;;;;;;;3.74;93.84;102152.63;4788854;30;20038;-78
2022/01/19 14:00:18;;;;;;;50.25;29.98;;;;;;;3.70;94.06;102162.88;4788986;30;20031;-77
2022/01/19 14:02:59;;;;;;;47.92;30.55;;;;;;;3.64;93.90;102135.72;4801284;29;20148;-77
2022/01/19 14:05:44;;;;;;;51.70;30.52;;;;;;;3.53;94.01;102112.00;4805000;29;20484;-77
2022/01/19 14:08:13;;;;;;;45.40;29.30;;;;;;;3.70;93.56;102125.41;4788002;29;20031;-80
2022/01/19 14:10:49;;;;;;;50.75;29.23;;;;;;;3.73;94.20;102124.50;4772871;30;20474;-78
2022/01/19 14:13:35;;;;;;;50.70;30.88;;;;;;;3.65;94.57;102111.03;4772450;30;20122;-80
2022/01/19 14:16:23;;;;;;;51.92;29.27;;;;;;;3.55;94.32;102109.47;4788715;30;20480;-80
2022/01/19 14:19:23;;;;;;;50.40;29.00;;;;;;;3.73;94.84;102135.56;4788626;29;20035;-79
2022/01/19 14:30:23;;;;;;;48.50;28.92;;;;;;;3.88;94.21;102118.38;5260462;24;20059;-80
2022/01/19 14:33:19;;;;;;;51.95;30.48;;;;;;;3.90;94.40;102129.41;4788242;30;20063;-81
2022/01/19 14:46:40;;;;;;;;;;;;;;;;;;;;;
2022/01/19 14:52:14;;;;;;;49.70;28.83;;;;;;;2.99;93.91;101951.09;4743351;30;20051;-80
2022/01/19 14:54:45;;;;;;;50.92;28.70;;;;;;;3.27;93.85;102000.03;4768215;30;20039;-79
2022/01/19 14:57:14;;;;;;;51.80;28.77;;;;;;;3.87;94.16;102097.06;4768059;30;20076;-79
2022/01/19 14:59:40;;;;;;;53.20;29.35;;;;;;;3.87;94.41;102096.25;4768220;30;20047;-82
2022/01/19 15:02:09;;;;;;;46.75;28.55;;;;;;;3.88;94.08;102097.91;4767937;30;20028;-82
2022/01/19 15:04:40;;;;;;;50.95;29.05;;;;;;;3.87;94.33;102094.53;4767795;30;20076;-80
2022/01/19 15:07:07;;;;;;;49.58;28.88;;;;;;;3.74;94.24;102067.47;4767194;30;20096;-80
2022/01/19 15:09:33;;;;;;;49.20;29.85;;;;;;;3.90;94.20;102091.06;4767555;30;20513;-79
2022/01/19 15:11:58;;;;;;;50.45;30.85;;;;;;;3.86;94.77;102081.78;4767818;30;20059;-79
2022/01/19 15:14:23;;;;;;;53.63;30.20;;;;;;;3.67;95.46;102066.72;4767527;30;20039;-80
2022/01/19 15:16:49;;;;;;;57.05;32.22;;;;;;;3.30;95.66;102017.03;4767559;30;20508;-80
2022/01/19 15:19:14;;;;;;;50.72;30.35;;;;;;;3.68;96.77;102081.16;4779976;30;20107;-79
2022/01/19 15:21:40;;;;;;;55.60;32.20;;;;;;;3.67;97.18;102092.25;4787596;30;20039;-80
2022/01/19 15:24:05;;;;;;;54.72;31.38;;;;;;;3.55;97.37;102081.38;4787754;30;20381;-79
2022/01/19 15:26:31;;;;;;;59.85;34.08;;;;;;;3.56;97.90;102085.63;4787331;30;20072;-81
2022/01/19 15:28:59;;;;;;;61.08;33.38;;;;;;;3.60;98.31;102100.03;4786961;29;20042;-76
2022/01/19 15:31:24;;;;;;;62.05;33.28;;;;;;;3.47;98.74;102071.25;4788010;30;20074;-76
2022/01/19 15:33:50;;;;;;;61.22;33.30;;;;;;;3.33;99.21;102056.09;4787581;30;20058;-79
2022/01/19 15:36:15;;;;;;;58.30;33.53;;;;;;;3.55;99.58;102101.81;4786967;30;20061;-79
2022/01/19 15:38:43;;;;;;;62.72;35.13;;;;;;;3.37;99.84;102079.91;4787430;30;20506;-79
2022/01/19 15:41:08;;;;;;;58.83;33.40;;;;;;;3.53;100.00;102111.16;4800016;29;20043;-78
2022/01/19 15:43:33;;;;;;;59.95;33.25;;;;;;;3.47;100.00;102101.06;4805121;29;20213;-79
2022/01/19 15:45:59;;;;;;;66.03;35.55;;;;;;;3.53;100.00;102108.63;4805241;29;20031;-79
2022/01/19 15:48:26;;;;;;;66.97;36.45;;;;;;;3.30;100.00;102074.03;4788871;29;20038;-78
2022/01/19 15:50:55;;;;;;;64.82;36.60;;;;;;;3.48;100.00;102106.13;4805520;29;20114;-80
2022/01/19 15:56:00;;;;;;;71.28;38.08;;;;;;;2.91;100.00;102014.13;4886099;24;20055;-78
2022/01/19 15:58:29;;;;;;;65.88;36.78;;;;;;;2.49;100.00;101952.56;4787103;29;20035;-78
2022/01/19 16:01:19;;;;;;;61.65;35.22;;;;;;;3.43;100.00;102106.19;4787111;30;20043;-77
2022/01/19 16:03:59;;;;;;;73.22;39.30;;;;;;;3.09;100.00;102039.41;4787273;30;20100;-79
2022/01/19 16:06:25;;;;;;;74.30;39.50;;;;;;;3.47;100.00;102107.00;4787151;30;20388;-78
2022/01/19 16:08:50;;;;;;;74.57;38.40;;;;;;;3.47;100.00;102101.91;4787550;30;20035;-78
2022/01/19 16:11:18;;;;;;;68.95;38.03;;;;;;;3.48;100.00;102105.31;4787847;30;20031;-80
2022/01/19 16:13:44;;;;;;;71.72;38.22;;;;;;;3.51;100.00;102105.25;4788351;30;20534;-79
2022/01/19 16:16:10;;;;;;;70.55;39.58;;;;;;;3.44;100.00;102091.72;4787813;30;20038;-80
2022/01/19 16:18:36;;;;;;;72.22;38.67;;;;;;;3.40;100.00;102098.56;4788476;29;20050;-76
2022/01/19 16:21:06;;;;;;;68.03;39.75;;;;;;;3.34;100.00;102083.34;4790549;30;20055;-78
2022/01/19 16:26:18;;;;;;;73.82;42.05;;;;;;;3.34;100.00;102080.81;4790619;30;20053;-78
2022/01/19 16:28:46;;;;;;;78.57;43.65;;;;;;;3.53;100.00;102113.72;4790317;30;20023;-78
2022/01/19 16:31:14;;;;;;;86.13;42.53;;;;;;;3.42;100.00;102096.84;4790347;30;20059;-79
2022/01/19 16:33:40;;;;;;;83.10;43.72;;;;;;;3.42;100.00;102099.38;4790130;30;20089;-78
2022/01/19 16:36:29;;;;;;;76.45;42.47;;;;;;;3.19;100.00;102060.56;4790139;30;20449;-80
2022/01/19 16:38:55;;;;;;;87.60;45.45;;;;;;;3.24;100.00;102068.13;4789146;30;20050;-79
2022/01/19 16:41:25;;;;;;;82.90;44.85;;;;;;;3.29;100.00;102081.72;4804722;24;20051;-81
2022/01/19 16:43:52;;;;;;;85.95;44.20;;;;;;;3.45;100.00;102104.47;4789890;30;20063;-78
2022/01/19 16:46:26;;;;;;;84.28;45.67;;;;;;;3.29;100.00;102091.91;4789429;30;20034;-76
2022/01/19 16:49:05;;;;;;;87.82;45.97;;;;;;;3.32;100.00;102097.81;4789817;30;20071;-77
2022/01/19 16:51:37;;;;;;;86.00;45.85;;;;;;;3.31;100.00;102091.03;4789957;30;20035;-79
2022/01/19 16:54:04;;;;;;;95.10;48.90;;;;;;;3.49;100.00;102115.50;4789011;30;20035;-78
2022/01/19 16:56:29;;;;;;;97.03;48.70;;;;;;;3.49;100.00;102112.94;4789798;29;20028;-77
2022/01/19 16:58:54;;;;;;;95.30;48.50;;;;;;;3.34;100.00;102093.56;4789950;30;20092;-78
2022/01/19 17:01:22;;;;;;;98.00;49.25;;;;;;;3.50;100.00;102116.31;4788065;30;20047;-78
2022/01/19 17:03:48;;;;;;;87.47;46.83;;;;;;;3.33;100.00;102085.91;4789774;30;20027;-79
2022/01/19 17:06:13;;;;;;;88.90;46.38;;;;;;;3.30;100.00;102086.78;4789868;30;20035;-78
2022/01/19 17:08:41;;;;;;;90.88;48.38;;;;;;;3.54;100.00;102126.50;4789537;30;20422;-79
2022/01/19 17:11:08;;;;;;;91.10;47.60;;;;;;;3.44;100.00;102107.91;4789532;30;20392;-80
2022/01/19 17:13:42;;;;;;;88.20;46.10;;;;;;;3.59;100.00;102144.31;4789432;30;20485;-80
2022/01/19 17:18:58;;;;;;;85.53;46.25;;;;;;;3.67;100.00;102151.00;4789355;30;20445;-80
2022/01/19 17:21:23;;;;;;;86.82;45.80;;;;;;;3.69;100.00;102145.88;4791060;29;20041;-78
2022/01/19 17:23:52;;;;;;;84.20;46.08;;;;;;;3.58;100.00;102122.19;4807070;29;20030;-78
2022/01/19 17:26:19;;;;;;;86.53;44.53;;;;;;;3.61;100.00;102125.53;4805897;29;20043;-79
2022/01/19 17:28:45;;;;;;;82.10;45.03;;;;;;;3.76;100.00;102138.97;4805584;24;20061;-80
2022/01/19 17:31:11;;;;;;;82.90;45.47;;;;;;;3.52;100.00;102096.72;4788706;29;20035;-80
2022/01/19 17:33:38;;;;;;;83.47;46.20;;;;;;;3.58;100.00;102109.41;4789335;30;20027;-78
2022/01/19 17:36:05;;;;;;;85.00;45.38;;;;;;;3.81;100.00;102140.59;4789314;30;20031;-79
2022/01/19 17:38:30;;;;;;;82.70;45.00;;;;;;;3.74;100.00;102124.53;4788859;30;20553;-79
2022/01/19 17:40:55;;;;;;;79.30;45.50;;;;;;;3.75;100.00;102115.16;4789215;30;20063;-79
2022/01/19 17:43:21;;;;;;;84.88;46.80;;;;;;;3.85;100.00;102137.16;4788831;30;20035;-79
2022/01/19 17:45:58;;;;;;;84.90;46.40;;;;;;;3.87;100.00;102140.53;4788904;29;20092;-79
2022/01/19 17:53:49;;;;;;;78.55;43.67;;;;;;;3.98;100.00;102150.59;4788718;30;20042;-80
2022/01/19 17:56:14;;;;;;;74.90;42.70;;;;;;;3.71;100.00;102104.09;4788775;29;20555;-79